sensor_id;sensor_type;location;lat;lon;timestamp;P1;durP1;ratioP1;P2;durP2;ratioP2
50213;SDS011;36103;54.176;12.070;2023-07-02T00:00:19;4.80;;;2.57;;
50213;SDS011;36103;54.176;12.070;2023-07-02T00:01:26;4.73;;;2.50;;
50213;SDS011;36103;54.176;12.070;2023-07-02T00:02:27;4.77;;;2.20;;
50213;SDS011;36103;54.176;12.070;2023-07-02T00:03:33;4.77;;;2.17;;
50213;SDS011;36103;54.176;12.070;2023-07-02T00:04:34;3.50;;;2.10;;
50213;SDS011;36103;54.176;12.070;2023-07-02T00:05:36;5.60;;;1.97;;
50213;SDS011;36103;54.176;12.070;2023-07-02T00:06:46;3.60;;;2.00;;
50213;SDS011;36103;54.176;12.070;2023-07-02T00:07:49;4.67;;;1.80;;
50213;SDS011;36103;54.176;12.070;2023-07-02T00:08:50;4.65;;;1.85;;
50213;SDS011;36103;54.176;12.070;2023-07-02T00:09:55;4.40;;;2.13;;
50213;SDS011;36103;54.176;12.070;2023-07-02T00:10:56;4.63;;;2.23;;
50213;SDS011;36103;54.176;12.070;2023-07-02T00:11:58;7.60;;;2.15;;
50213;SDS011;36103;54.176;12.070;2023-07-02T00:12:59;3.70;;;1.97;;
50213;SDS011;36103;54.176;12.070;2023-07-02T00:14:03;4.43;;;1.90;;
50213;SDS011;36103;54.176;12.070;2023-07-02T00:15:07;3.50;;;1.70;;
50213;SDS011;36103;54.176;12.070;2023-07-02T00:16:13;3.53;;;1.60;;
50213;SDS011;36103;54.176;12.070;2023-07-02T00:17:14;5.53;;;2.13;;
50213;SDS011;36103;54.176;12.070;2023-07-02T00:18:17;3.78;;;2.03;;
50213;SDS011;36103;54.176;12.070;2023-07-02T00:19:18;5.93;;;1.83;;
50213;SDS011;36103;54.176;12.070;2023-07-02T00:20:20;3.73;;;1.87;;
50213;SDS011;36103;54.176;12.070;2023-07-02T00:21:21;6.73;;;1.83;;
50213;SDS011;36103;54.176;12.070;2023-07-02T00:22:29;5.80;;;2.07;;
50213;SDS011;36103;54.176;12.070;2023-07-02T00:23:32;3.43;;;1.73;;
50213;SDS011;36103;54.176;12.070;2023-07-02T00:24:36;4.07;;;1.90;;
50213;SDS011;36103;54.176;12.070;2023-07-02T00:25:37;3.23;;;1.73;;
50213;SDS011;36103;54.176;12.070;2023-07-02T00:26:39;6.50;;;1.83;;
50213;SDS011;36103;54.176;12.070;2023-07-02T00:27:44;2.60;;;1.40;;
50213;SDS011;36103;54.176;12.070;2023-07-02T00:28:47;7.47;;;1.90;;
50213;SDS011;36103;54.176;12.070;2023-07-02T00:29:48;5.50;;;2.00;;
50213;SDS011;36103;54.176;12.070;2023-07-02T00:30:53;4.00;;;1.90;;
50213;SDS011;36103;54.176;12.070;2023-07-02T00:31:54;2.67;;;1.40;;
50213;SDS011;36103;54.176;12.070;2023-07-02T00:32:57;4.47;;;2.00;;
50213;SDS011;36103;54.176;12.070;2023-07-02T00:33:58;3.50;;;1.73;;
50213;SDS011;36103;54.176;12.070;2023-07-02T00:35:03;3.03;;;1.53;;
50213;SDS011;36103;54.176;12.070;2023-07-02T00:36:04;3.50;;;1.63;;
50213;SDS011;36103;54.176;12.070;2023-07-02T00:37:06;3.97;;;1.70;;
50213;SDS011;36103;54.176;12.070;2023-07-02T00:38:07;5.40;;;1.60;;
50213;SDS011;36103;54.176;12.070;2023-07-02T00:39:11;2.63;;;1.60;;
50213;SDS011;36103;54.176;12.070;2023-07-02T00:40:12;2.60;;;1.40;;
50213;SDS011;36103;54.176;12.070;2023-07-02T00:41:17;6.77;;;1.83;;
50213;SDS011;36103;54.176;12.070;2023-07-02T00:42:18;6.73;;;2.00;;
50213;SDS011;36103;54.176;12.070;2023-07-02T00:43:23;3.10;;;1.50;;
50213;SDS011;36103;54.176;12.070;2023-07-02T00:44:24;3.93;;;1.50;;
50213;SDS011;36103;54.176;12.070;2023-07-02T00:45:28;4.10;;;2.00;;
50213;SDS011;36103;54.176;12.070;2023-07-02T00:46:30;2.00;;;1.23;;
50213;SDS011;36103;54.176;12.070;2023-07-02T00:47:34;5.20;;;1.70;;
50213;SDS011;36103;54.176;12.070;2023-07-02T00:48:35;4.23;;;1.63;;
50213;SDS011;36103;54.176;12.070;2023-07-02T00:49:39;5.70;;;1.57;;
50213;SDS011;36103;54.176;12.070;2023-07-02T00:50:43;3.03;;;1.50;;
50213;SDS011;36103;54.176;12.070;2023-07-02T00:51:43;3.73;;;1.43;;
50213;SDS011;36103;54.176;12.070;2023-07-02T00:52:45;6.77;;;1.70;;
50213;SDS011;36103;54.176;12.070;2023-07-02T00:53:47;3.37;;;1.60;;
50213;SDS011;36103;54.176;12.070;2023-07-02T00:54:50;5.83;;;1.60;;
50213;SDS011;36103;54.176;12.070;2023-07-02T00:55:51;2.67;;;1.50;;
50213;SDS011;36103;54.176;12.070;2023-07-02T00:56:54;6.70;;;1.77;;
50213;SDS011;36103;54.176;12.070;2023-07-02T00:57:55;3.47;;;1.70;;
50213;SDS011;36103;54.176;12.070;2023-07-02T00:58:58;4.47;;;1.83;;
50213;SDS011;36103;54.176;12.070;2023-07-02T01:00:01;6.77;;;2.00;;
50213;SDS011;36103;54.176;12.070;2023-07-02T01:01:05;5.33;;;1.80;;
50213;SDS011;36103;54.176;12.070;2023-07-02T01:02:08;4.83;;;1.50;;
50213;SDS011;36103;54.176;12.070;2023-07-02T01:03:11;5.23;;;1.30;;
50213;SDS011;36103;54.176;12.070;2023-07-02T01:04:12;3.57;;;1.47;;
50213;SDS011;36103;54.176;12.070;2023-07-02T01:05:14;7.33;;;1.90;;
50213;SDS011;36103;54.176;12.070;2023-07-02T01:06:16;4.43;;;1.83;;
50213;SDS011;36103;54.176;12.070;2023-07-02T01:07:20;5.03;;;1.67;;
50213;SDS011;36103;54.176;12.070;2023-07-02T01:08:23;7.07;;;1.80;;
50213;SDS011;36103;54.176;12.070;2023-07-02T01:09:25;3.33;;;1.60;;
50213;SDS011;36103;54.176;12.070;2023-07-02T01:10:28;7.70;;;1.90;;
50213;SDS011;36103;54.176;12.070;2023-07-02T01:11:34;4.17;;;1.77;;
50213;SDS011;36103;54.176;12.070;2023-07-02T01:12:38;5.50;;;1.67;;
50213;SDS011;36103;54.176;12.070;2023-07-02T01:13:43;3.67;;;1.47;;
50213;SDS011;36103;54.176;12.070;2023-07-02T01:14:47;4.87;;;1.60;;
50213;SDS011;36103;54.176;12.070;2023-07-02T01:15:53;4.53;;;1.80;;
50213;SDS011;36103;54.176;12.070;2023-07-02T01:17:00;5.27;;;1.50;;
50213;SDS011;36103;54.176;12.070;2023-07-02T01:18:07;5.50;;;1.70;;
50213;SDS011;36103;54.176;12.070;2023-07-02T01:19:11;3.50;;;1.50;;
50213;SDS011;36103;54.176;12.070;2023-07-02T01:20:22;6.30;;;1.50;;
50213;SDS011;36103;54.176;12.070;2023-07-02T01:21:25;4.67;;;1.70;;
50213;SDS011;36103;54.176;12.070;2023-07-02T01:22:28;4.13;;;1.30;;
50213;SDS011;36103;54.176;12.070;2023-07-02T01:23:31;2.70;;;1.70;;
50213;SDS011;36103;54.176;12.070;2023-07-02T01:24:34;6.63;;;1.93;;
50213;SDS011;36103;54.176;12.070;2023-07-02T01:25:36;2.37;;;1.40;;
50213;SDS011;36103;54.176;12.070;2023-07-02T01:26:40;8.57;;;2.07;;
50213;SDS011;36103;54.176;12.070;2023-07-02T01:27:41;2.93;;;1.57;;
50213;SDS011;36103;54.176;12.070;2023-07-02T01:28:44;6.70;;;1.77;;
50213;SDS011;36103;54.176;12.070;2023-07-02T01:29:50;5.17;;;1.87;;
50213;SDS011;36103;54.176;12.070;2023-07-02T01:30:53;4.03;;;1.93;;
50213;SDS011;36103;54.176;12.070;2023-07-02T01:31:56;3.10;;;1.47;;
50213;SDS011;36103;54.176;12.070;2023-07-02T01:32:59;1.93;;;1.20;;
50213;SDS011;36103;54.176;12.070;2023-07-02T01:34:00;3.47;;;1.67;;
50213;SDS011;36103;54.176;12.070;2023-07-02T01:35:06;4.50;;;1.90;;
50213;SDS011;36103;54.176;12.070;2023-07-02T01:36:11;3.83;;;1.53;;
50213;SDS011;36103;54.176;12.070;2023-07-02T01:37:15;7.63;;;1.60;;
50213;SDS011;36103;54.176;12.070;2023-07-02T01:38:21;5.60;;;1.67;;
50213;SDS011;36103;54.176;12.070;2023-07-02T01:39:24;6.27;;;1.83;;
50213;SDS011;36103;54.176;12.070;2023-07-02T01:40:25;5.97;;;1.60;;
50213;SDS011;36103;54.176;12.070;2023-07-02T01:41:26;7.33;;;1.53;;
50213;SDS011;36103;54.176;12.070;2023-07-02T01:42:29;4.87;;;1.87;;
50213;SDS011;36103;54.176;12.070;2023-07-02T01:43:32;4.17;;;1.60;;
50213;SDS011;36103;54.176;12.070;2023-07-02T01:44:33;3.13;;;1.90;;
50213;SDS011;36103;54.176;12.070;2023-07-02T01:45:37;7.07;;;1.77;;
50213;SDS011;36103;54.176;12.070;2023-07-02T01:46:40;4.23;;;1.63;;
50213;SDS011;36103;54.176;12.070;2023-07-02T01:47:42;5.33;;;1.63;;
50213;SDS011;36103;54.176;12.070;2023-07-02T01:48:44;3.33;;;1.47;;
50213;SDS011;36103;54.176;12.070;2023-07-02T01:49:47;4.20;;;1.63;;
50213;SDS011;36103;54.176;12.070;2023-07-02T01:50:48;4.07;;;1.53;;
50213;SDS011;36103;54.176;12.070;2023-07-02T01:51:53;6.70;;;2.17;;
50213;SDS011;36103;54.176;12.070;2023-07-02T01:52:55;5.63;;;1.67;;
50213;SDS011;36103;54.176;12.070;2023-07-02T01:53:59;5.07;;;1.90;;
50213;SDS011;36103;54.176;12.070;2023-07-02T01:55:01;3.80;;;1.40;;
50213;SDS011;36103;54.176;12.070;2023-07-02T01:56:05;5.67;;;1.60;;
50213;SDS011;36103;54.176;12.070;2023-07-02T01:57:06;4.20;;;1.47;;
50213;SDS011;36103;54.176;12.070;2023-07-02T01:58:09;3.73;;;1.57;;
50213;SDS011;36103;54.176;12.070;2023-07-02T01:59:10;4.13;;;1.70;;
50213;SDS011;36103;54.176;12.070;2023-07-02T02:00:12;6.60;;;1.70;;
50213;SDS011;36103;54.176;12.070;2023-07-02T02:01:17;4.90;;;1.77;;
50213;SDS011;36103;54.176;12.070;2023-07-02T02:02:20;3.87;;;1.40;;
50213;SDS011;36103;54.176;12.070;2023-07-02T02:03:21;6.30;;;1.80;;
50213;SDS011;36103;54.176;12.070;2023-07-02T02:04:26;3.50;;;1.50;;
50213;SDS011;36103;54.176;12.070;2023-07-02T02:05:27;3.60;;;1.57;;
50213;SDS011;36103;54.176;12.070;2023-07-02T02:06:29;1.97;;;1.17;;
50213;SDS011;36103;54.176;12.070;2023-07-02T02:07:31;3.77;;;1.40;;
50213;SDS011;36103;54.176;12.070;2023-07-02T02:08:36;4.00;;;1.73;;
50213;SDS011;36103;54.176;12.070;2023-07-02T02:09:37;7.97;;;1.90;;
50213;SDS011;36103;54.176;12.070;2023-07-02T02:10:40;3.77;;;1.60;;
50213;SDS011;36103;54.176;12.070;2023-07-02T02:11:42;3.03;;;1.60;;
50213;SDS011;36103;54.176;12.070;2023-07-02T02:12:47;4.33;;;1.63;;
50213;SDS011;36103;54.176;12.070;2023-07-02T02:13:48;3.97;;;1.50;;
50213;SDS011;36103;54.176;12.070;2023-07-02T02:14:50;3.83;;;1.90;;
50213;SDS011;36103;54.176;12.070;2023-07-02T02:15:53;3.33;;;1.70;;
50213;SDS011;36103;54.176;12.070;2023-07-02T02:16:58;3.97;;;1.77;;
50213;SDS011;36103;54.176;12.070;2023-07-02T02:17:59;5.13;;;1.57;;
50213;SDS011;36103;54.176;12.070;2023-07-02T02:19:02;8.63;;;1.90;;
50213;SDS011;36103;54.176;12.070;2023-07-02T02:20:04;4.40;;;1.80;;
50213;SDS011;36103;54.176;12.070;2023-07-02T02:21:09;3.77;;;1.90;;
50213;SDS011;36103;54.176;12.070;2023-07-02T02:22:11;4.23;;;1.70;;
50213;SDS011;36103;54.176;12.070;2023-07-02T02:23:16;5.97;;;1.50;;
50213;SDS011;36103;54.176;12.070;2023-07-02T02:24:16;7.40;;;1.80;;
50213;SDS011;36103;54.176;12.070;2023-07-02T02:25:18;7.03;;;1.77;;
50213;SDS011;36103;54.176;12.070;2023-07-02T02:26:20;3.47;;;1.83;;
50213;SDS011;36103;54.176;12.070;2023-07-02T02:27:25;4.63;;;1.57;;
50213;SDS011;36103;54.176;12.070;2023-07-02T02:28:26;6.20;;;1.57;;
50213;SDS011;36103;54.176;12.070;2023-07-02T02:29:35;6.80;;;1.93;;
50213;SDS011;36103;54.176;12.070;2023-07-02T02:30:35;4.20;;;1.60;;
50213;SDS011;36103;54.176;12.070;2023-07-02T02:31:37;6.07;;;1.83;;
50213;SDS011;36103;54.176;12.070;2023-07-02T02:32:39;4.30;;;2.03;;
50213;SDS011;36103;54.176;12.070;2023-07-02T02:33:43;3.93;;;1.73;;
50213;SDS011;36103;54.176;12.070;2023-07-02T02:34:43;3.80;;;1.33;;
50213;SDS011;36103;54.176;12.070;2023-07-02T02:35:45;4.80;;;1.80;;
50213;SDS011;36103;54.176;12.070;2023-07-02T02:36:47;5.97;;;1.77;;
50213;SDS011;36103;54.176;12.070;2023-07-02T02:37:49;3.33;;;1.47;;
50213;SDS011;36103;54.176;12.070;2023-07-02T02:38:51;4.47;;;1.70;;
50213;SDS011;36103;54.176;12.070;2023-07-02T02:39:53;5.00;;;1.83;;
50213;SDS011;36103;54.176;12.070;2023-07-02T02:40:54;3.10;;;1.70;;
50213;SDS011;36103;54.176;12.070;2023-07-02T02:41:55;4.80;;;2.20;;
50213;SDS011;36103;54.176;12.070;2023-07-02T02:42:56;4.77;;;1.97;;
50213;SDS011;36103;54.176;12.070;2023-07-02T02:43:58;4.23;;;1.50;;
50213;SDS011;36103;54.176;12.070;2023-07-02T02:44:59;4.53;;;1.63;;
50213;SDS011;36103;54.176;12.070;2023-07-02T02:46:00;5.17;;;1.67;;
50213;SDS011;36103;54.176;12.070;2023-07-02T02:47:01;4.60;;;1.70;;
50213;SDS011;36103;54.176;12.070;2023-07-02T02:48:04;5.57;;;1.50;;
50213;SDS011;36103;54.176;12.070;2023-07-02T02:49:05;5.13;;;1.83;;
50213;SDS011;36103;54.176;12.070;2023-07-02T02:50:07;3.70;;;1.33;;
50213;SDS011;36103;54.176;12.070;2023-07-02T02:51:09;4.17;;;1.60;;
50213;SDS011;36103;54.176;12.070;2023-07-02T02:52:11;4.27;;;1.60;;
50213;SDS011;36103;54.176;12.070;2023-07-02T02:53:14;2.37;;;1.50;;
50213;SDS011;36103;54.176;12.070;2023-07-02T02:54:17;3.77;;;1.77;;
50213;SDS011;36103;54.176;12.070;2023-07-02T02:55:18;7.00;;;1.70;;
50213;SDS011;36103;54.176;12.070;2023-07-02T02:56:20;4.23;;;1.60;;
50213;SDS011;36103;54.176;12.070;2023-07-02T02:57:20;2.77;;;1.70;;
50213;SDS011;36103;54.176;12.070;2023-07-02T02:58:22;5.60;;;2.17;;
50213;SDS011;36103;54.176;12.070;2023-07-02T02:59:23;8.23;;;2.03;;
50213;SDS011;36103;54.176;12.070;2023-07-02T03:00:24;3.73;;;2.00;;
50213;SDS011;36103;54.176;12.070;2023-07-02T03:01:25;5.13;;;1.87;;
50213;SDS011;36103;54.176;12.070;2023-07-02T03:02:31;4.37;;;1.80;;
50213;SDS011;36103;54.176;12.070;2023-07-02T03:03:31;3.43;;;1.60;;
50213;SDS011;36103;54.176;12.070;2023-07-02T03:04:36;4.23;;;1.70;;
50213;SDS011;36103;54.176;12.070;2023-07-02T03:05:39;7.73;;;1.70;;
50213;SDS011;36103;54.176;12.070;2023-07-02T03:06:41;3.30;;;1.60;;
50213;SDS011;36103;54.176;12.070;2023-07-02T03:07:42;7.13;;;1.63;;
50213;SDS011;36103;54.176;12.070;2023-07-02T03:08:43;2.63;;;1.50;;
50213;SDS011;36103;54.176;12.070;2023-07-02T03:09:45;2.33;;;1.50;;
50213;SDS011;36103;54.176;12.070;2023-07-02T03:10:47;5.27;;;1.93;;
50213;SDS011;36103;54.176;12.070;2023-07-02T03:11:48;2.80;;;1.60;;
50213;SDS011;36103;54.176;12.070;2023-07-02T03:12:49;3.87;;;1.50;;
50213;SDS011;36103;54.176;12.070;2023-07-02T03:13:50;2.60;;;1.50;;
50213;SDS011;36103;54.176;12.070;2023-07-02T03:14:51;4.87;;;1.83;;
50213;SDS011;36103;54.176;12.070;2023-07-02T03:15:54;3.03;;;1.60;;
50213;SDS011;36103;54.176;12.070;2023-07-02T03:16:56;3.10;;;1.30;;
50213;SDS011;36103;54.176;12.070;2023-07-02T03:17:56;2.73;;;1.73;;
50213;SDS011;36103;54.176;12.070;2023-07-02T03:18:58;4.90;;;1.67;;
50213;SDS011;36103;54.176;12.070;2023-07-02T03:19:59;5.23;;;1.73;;
50213;SDS011;36103;54.176;12.070;2023-07-02T03:21:00;5.53;;;1.83;;
50213;SDS011;36103;54.176;12.070;2023-07-02T03:22:01;2.30;;;1.60;;
50213;SDS011;36103;54.176;12.070;2023-07-02T03:23:02;5.83;;;1.70;;
50213;SDS011;36103;54.176;12.070;2023-07-02T03:24:03;4.83;;;1.67;;
50213;SDS011;36103;54.176;12.070;2023-07-02T03:25:07;4.83;;;1.90;;
50213;SDS011;36103;54.176;12.070;2023-07-02T03:26:08;5.00;;;1.87;;
50213;SDS011;36103;54.176;12.070;2023-07-02T03:27:10;4.83;;;1.50;;
50213;SDS011;36103;54.176;12.070;2023-07-02T03:28:10;5.43;;;1.70;;
50213;SDS011;36103;54.176;12.070;2023-07-02T03:29:12;6.80;;;2.20;;
50213;SDS011;36103;54.176;12.070;2023-07-02T03:30:13;2.53;;;1.70;;
50213;SDS011;36103;54.176;12.070;2023-07-02T03:31:14;5.50;;;1.70;;
50213;SDS011;36103;54.176;12.070;2023-07-02T03:32:15;4.40;;;1.73;;
50213;SDS011;36103;54.176;12.070;2023-07-02T03:33:16;6.10;;;1.47;;
50213;SDS011;36103;54.176;12.070;2023-07-02T03:34:17;2.97;;;1.60;;
50213;SDS011;36103;54.176;12.070;2023-07-02T03:35:18;5.33;;;1.87;;
50213;SDS011;36103;54.176;12.070;2023-07-02T03:36:19;5.17;;;1.80;;
50213;SDS011;36103;54.176;12.070;2023-07-02T03:37:20;4.50;;;1.77;;
50213;SDS011;36103;54.176;12.070;2023-07-02T03:38:21;4.83;;;1.67;;
50213;SDS011;36103;54.176;12.070;2023-07-02T03:39:23;5.60;;;1.80;;
50213;SDS011;36103;54.176;12.070;2023-07-02T03:40:25;4.33;;;1.63;;
50213;SDS011;36103;54.176;12.070;2023-07-02T03:41:27;3.83;;;1.73;;
50213;SDS011;36103;54.176;12.070;2023-07-02T03:42:28;2.50;;;1.60;;
50213;SDS011;36103;54.176;12.070;2023-07-02T03:43:29;4.43;;;1.97;;
50213;SDS011;36103;54.176;12.070;2023-07-02T03:44:30;6.00;;;1.70;;
50213;SDS011;36103;54.176;12.070;2023-07-02T03:45:31;5.00;;;1.67;;
50213;SDS011;36103;54.176;12.070;2023-07-02T03:46:32;3.37;;;1.47;;
50213;SDS011;36103;54.176;12.070;2023-07-02T03:47:33;3.57;;;1.87;;
50213;SDS011;36103;54.176;12.070;2023-07-02T03:48:34;4.40;;;1.97;;
50213;SDS011;36103;54.176;12.070;2023-07-02T03:49:36;4.63;;;1.87;;
50213;SDS011;36103;54.176;12.070;2023-07-02T03:50:36;2.70;;;1.70;;
50213;SDS011;36103;54.176;12.070;2023-07-02T03:51:38;3.83;;;1.80;;
50213;SDS011;36103;54.176;12.070;2023-07-02T03:52:38;3.47;;;1.63;;
50213;SDS011;36103;54.176;12.070;2023-07-02T03:53:40;4.83;;;1.80;;
50213;SDS011;36103;54.176;12.070;2023-07-02T03:54:41;4.97;;;1.73;;
50213;SDS011;36103;54.176;12.070;2023-07-02T03:55:43;2.77;;;1.47;;
50213;SDS011;36103;54.176;12.070;2023-07-02T03:56:44;5.10;;;2.00;;
50213;SDS011;36103;54.176;12.070;2023-07-02T03:57:46;4.27;;;1.50;;
50213;SDS011;36103;54.176;12.070;2023-07-02T03:58:46;2.90;;;1.80;;
50213;SDS011;36103;54.176;12.070;2023-07-02T03:59:48;6.67;;;2.10;;
50213;SDS011;36103;54.176;12.070;2023-07-02T04:00:48;4.83;;;1.60;;
50213;SDS011;36103;54.176;12.070;2023-07-02T04:01:50;4.73;;;1.47;;
50213;SDS011;36103;54.176;12.070;2023-07-02T04:02:51;2.43;;;1.47;;
50213;SDS011;36103;54.176;12.070;2023-07-02T04:03:53;4.07;;;1.90;;
50213;SDS011;36103;54.176;12.070;2023-07-02T04:04:53;4.13;;;1.73;;
50213;SDS011;36103;54.176;12.070;2023-07-02T04:05:55;4.20;;;1.70;;
50213;SDS011;36103;54.176;12.070;2023-07-02T04:06:56;6.00;;;2.07;;
50213;SDS011;36103;54.176;12.070;2023-07-02T04:07:57;4.90;;;1.57;;
50213;SDS011;36103;54.176;12.070;2023-07-02T04:08:58;3.73;;;1.40;;
50213;SDS011;36103;54.176;12.070;2023-07-02T04:10:00;3.87;;;1.70;;
50213;SDS011;36103;54.176;12.070;2023-07-02T04:11:02;3.73;;;1.40;;
50213;SDS011;36103;54.176;12.070;2023-07-02T04:12:04;3.57;;;2.00;;
50213;SDS011;36103;54.176;12.070;2023-07-02T04:13:05;4.17;;;1.60;;
50213;SDS011;36103;54.176;12.070;2023-07-02T04:14:06;7.00;;;2.20;;
50213;SDS011;36103;54.176;12.070;2023-07-02T04:15:07;5.23;;;1.90;;
50213;SDS011;36103;54.176;12.070;2023-07-02T04:16:09;4.83;;;1.80;;
50213;SDS011;36103;54.176;12.070;2023-07-02T04:17:10;5.87;;;1.90;;
50213;SDS011;36103;54.176;12.070;2023-07-02T04:18:12;4.10;;;1.80;;
50213;SDS011;36103;54.176;12.070;2023-07-02T04:19:12;2.93;;;1.60;;
50213;SDS011;36103;54.176;12.070;2023-07-02T04:20:14;2.80;;;1.73;;
50213;SDS011;36103;54.176;12.070;2023-07-02T04:21:14;3.57;;;1.40;;
50213;SDS011;36103;54.176;12.070;2023-07-02T04:22:16;6.83;;;1.97;;
50213;SDS011;36103;54.176;12.070;2023-07-02T04:23:18;4.67;;;1.73;;
50213;SDS011;36103;54.176;12.070;2023-07-02T04:24:19;4.33;;;1.90;;
50213;SDS011;36103;54.176;12.070;2023-07-02T04:25:20;5.50;;;1.83;;
50213;SDS011;36103;54.176;12.070;2023-07-02T04:26:23;5.37;;;2.30;;
50213;SDS011;36103;54.176;12.070;2023-07-02T04:27:27;5.37;;;2.13;;
50213;SDS011;36103;54.176;12.070;2023-07-02T04:28:28;6.23;;;2.30;;
50213;SDS011;36103;54.176;12.070;2023-07-02T04:29:29;5.37;;;1.90;;
50213;SDS011;36103;54.176;12.070;2023-07-02T04:30:30;4.47;;;2.00;;
50213;SDS011;36103;54.176;12.070;2023-07-02T04:31:31;3.37;;;1.80;;
50213;SDS011;36103;54.176;12.070;2023-07-02T04:32:32;6.60;;;2.30;;
50213;SDS011;36103;54.176;12.070;2023-07-02T04:33:33;6.83;;;1.93;;
50213;SDS011;36103;54.176;12.070;2023-07-02T04:34:36;3.07;;;1.70;;
50213;SDS011;36103;54.176;12.070;2023-07-02T04:35:36;2.57;;;1.77;;
50213;SDS011;36103;54.176;12.070;2023-07-02T04:36:38;5.47;;;1.80;;
50213;SDS011;36103;54.176;12.070;2023-07-02T04:37:38;5.50;;;2.00;;
50213;SDS011;36103;54.176;12.070;2023-07-02T04:38:40;8.73;;;2.30;;
50213;SDS011;36103;54.176;12.070;2023-07-02T04:39:40;4.03;;;2.00;;
50213;SDS011;36103;54.176;12.070;2023-07-02T04:40:42;4.73;;;1.73;;
50213;SDS011;36103;54.176;12.070;2023-07-02T04:41:46;4.30;;;1.70;;
50213;SDS011;36103;54.176;12.070;2023-07-02T04:42:52;5.67;;;2.10;;
50213;SDS011;36103;54.176;12.070;2023-07-02T04:43:57;3.63;;;2.13;;
50213;SDS011;36103;54.176;12.070;2023-07-02T04:44:59;4.07;;;2.23;;
50213;SDS011;36103;54.176;12.070;2023-07-02T04:46:03;6.53;;;1.77;;
50213;SDS011;36103;54.176;12.070;2023-07-02T04:47:07;4.87;;;2.30;;
50213;SDS011;36103;54.176;12.070;2023-07-02T04:48:08;2.90;;;1.80;;
50213;SDS011;36103;54.176;12.070;2023-07-02T04:49:09;4.23;;;2.13;;
50213;SDS011;36103;54.176;12.070;2023-07-02T04:50:10;4.27;;;2.00;;
50213;SDS011;36103;54.176;12.070;2023-07-02T04:51:12;5.60;;;2.20;;
50213;SDS011;36103;54.176;12.070;2023-07-02T04:52:13;8.80;;;2.03;;
50213;SDS011;36103;54.176;12.070;2023-07-02T04:53:15;3.87;;;2.03;;
50213;SDS011;36103;54.176;12.070;2023-07-02T04:54:16;4.73;;;2.07;;
50213;SDS011;36103;54.176;12.070;2023-07-02T04:55:17;3.57;;;1.73;;
50213;SDS011;36103;54.176;12.070;2023-07-02T04:56:18;5.00;;;2.03;;
50213;SDS011;36103;54.176;12.070;2023-07-02T04:57:21;4.67;;;2.10;;
50213;SDS011;36103;54.176;12.070;2023-07-02T04:58:21;5.03;;;2.20;;
50213;SDS011;36103;54.176;12.070;2023-07-02T04:59:23;5.40;;;1.90;;
50213;SDS011;36103;54.176;12.070;2023-07-02T05:00:24;4.47;;;1.90;;
50213;SDS011;36103;54.176;12.070;2023-07-02T05:01:27;4.17;;;2.00;;
50213;SDS011;36103;54.176;12.070;2023-07-02T05:02:28;6.23;;;2.07;;
50213;SDS011;36103;54.176;12.070;2023-07-02T05:03:29;4.63;;;2.00;;
50213;SDS011;36103;54.176;12.070;2023-07-02T05:04:30;4.33;;;2.10;;
50213;SDS011;36103;54.176;12.070;2023-07-02T05:05:31;5.47;;;2.27;;
50213;SDS011;36103;54.176;12.070;2023-07-02T05:06:32;5.87;;;1.70;;
50213;SDS011;36103;54.176;12.070;2023-07-02T05:07:33;7.47;;;2.40;;
50213;SDS011;36103;54.176;12.070;2023-07-02T05:08:34;4.87;;;2.40;;
50213;SDS011;36103;54.176;12.070;2023-07-02T05:09:36;5.77;;;2.37;;
50213;SDS011;36103;54.176;12.070;2023-07-02T05:10:37;3.70;;;2.20;;
50213;SDS011;36103;54.176;12.070;2023-07-02T05:11:38;4.87;;;2.13;;
50213;SDS011;36103;54.176;12.070;2023-07-02T05:12:40;4.10;;;2.20;;
50213;SDS011;36103;54.176;12.070;2023-07-02T05:13:42;3.77;;;1.93;;
50213;SDS011;36103;54.176;12.070;2023-07-02T05:14:42;3.70;;;1.73;;
50213;SDS011;36103;54.176;12.070;2023-07-02T05:15:44;3.90;;;2.03;;
50213;SDS011;36103;54.176;12.070;2023-07-02T05:16:44;6.73;;;2.50;;
50213;SDS011;36103;54.176;12.070;2023-07-02T05:17:46;5.43;;;2.17;;
50213;SDS011;36103;54.176;12.070;2023-07-02T05:18:47;3.60;;;1.77;;
50213;SDS011;36103;54.176;12.070;2023-07-02T05:19:48;4.93;;;2.20;;
50213;SDS011;36103;54.176;12.070;2023-07-02T05:20:49;5.13;;;2.03;;
50213;SDS011;36103;54.176;12.070;2023-07-02T05:21:50;8.13;;;2.37;;
50213;SDS011;36103;54.176;12.070;2023-07-02T05:22:51;5.27;;;2.50;;
50213;SDS011;36103;54.176;12.070;2023-07-02T05:23:52;6.20;;;2.63;;
50213;SDS011;36103;54.176;12.070;2023-07-02T05:24:53;4.30;;;2.20;;
50213;SDS011;36103;54.176;12.070;2023-07-02T05:25:54;4.87;;;2.43;;
50213;SDS011;36103;54.176;12.070;2023-07-02T05:26:55;5.17;;;2.37;;
50213;SDS011;36103;54.176;12.070;2023-07-02T05:27:58;3.40;;;2.37;;
50213;SDS011;36103;54.176;12.070;2023-07-02T05:28:58;5.50;;;2.63;;
50213;SDS011;36103;54.176;12.070;2023-07-02T05:30:00;4.97;;;2.50;;
50213;SDS011;36103;54.176;12.070;2023-07-02T05:31:01;4.60;;;2.23;;
50213;SDS011;36103;54.176;12.070;2023-07-02T05:32:02;4.97;;;2.30;;
50213;SDS011;36103;54.176;12.070;2023-07-02T05:33:03;5.40;;;2.47;;
50213;SDS011;36103;54.176;12.070;2023-07-02T05:34:05;5.57;;;2.33;;
50213;SDS011;36103;54.176;12.070;2023-07-02T05:35:06;5.07;;;2.27;;
50213;SDS011;36103;54.176;12.070;2023-07-02T05:36:08;7.60;;;2.40;;
50213;SDS011;36103;54.176;12.070;2023-07-02T05:37:08;6.13;;;2.23;;
50213;SDS011;36103;54.176;12.070;2023-07-02T05:38:10;9.97;;;2.67;;
50213;SDS011;36103;54.176;12.070;2023-07-02T05:39:11;5.07;;;2.30;;
50213;SDS011;36103;54.176;12.070;2023-07-02T05:40:12;4.00;;;2.20;;
50213;SDS011;36103;54.176;12.070;2023-07-02T05:41:17;3.13;;;2.03;;
50213;SDS011;36103;54.176;12.070;2023-07-02T05:42:19;3.93;;;2.53;;
50213;SDS011;36103;54.176;12.070;2023-07-02T05:43:21;4.83;;;2.37;;
50213;SDS011;36103;54.176;12.070;2023-07-02T05:44:22;4.37;;;2.40;;
50213;SDS011;36103;54.176;12.070;2023-07-02T05:45:23;5.87;;;2.53;;
50213;SDS011;36103;54.176;12.070;2023-07-02T05:46:24;5.00;;;2.63;;
50213;SDS011;36103;54.176;12.070;2023-07-02T05:47:25;5.70;;;2.83;;
50213;SDS011;36103;54.176;12.070;2023-07-02T05:48:27;5.13;;;2.37;;
50213;SDS011;36103;54.176;12.070;2023-07-02T05:49:27;7.37;;;2.60;;
50213;SDS011;36103;54.176;12.070;2023-07-02T05:50:29;5.57;;;2.33;;
50213;SDS011;36103;54.176;12.070;2023-07-02T05:51:29;5.67;;;2.40;;
50213;SDS011;36103;54.176;12.070;2023-07-02T05:52:31;6.70;;;2.93;;
50213;SDS011;36103;54.176;12.070;2023-07-02T05:53:31;8.20;;;2.70;;
50213;SDS011;36103;54.176;12.070;2023-07-02T05:54:33;7.43;;;2.53;;
50213;SDS011;36103;54.176;12.070;2023-07-02T05:55:34;6.47;;;2.70;;
50213;SDS011;36103;54.176;12.070;2023-07-02T05:56:35;6.20;;;2.73;;
50213;SDS011;36103;54.176;12.070;2023-07-02T05:57:36;6.47;;;2.90;;
50213;SDS011;36103;54.176;12.070;2023-07-02T05:58:39;4.83;;;2.60;;
50213;SDS011;36103;54.176;12.070;2023-07-02T05:59:39;5.50;;;2.40;;
50213;SDS011;36103;54.176;12.070;2023-07-02T06:00:41;4.20;;;2.40;;
50213;SDS011;36103;54.176;12.070;2023-07-02T06:01:42;9.23;;;3.30;;
50213;SDS011;36103;54.176;12.070;2023-07-02T06:02:45;5.77;;;2.87;;
50213;SDS011;36103;54.176;12.070;2023-07-02T06:03:48;5.43;;;2.73;;
50213;SDS011;36103;54.176;12.070;2023-07-02T06:04:49;5.13;;;2.77;;
50213;SDS011;36103;54.176;12.070;2023-07-02T06:05:51;6.20;;;3.07;;
50213;SDS011;36103;54.176;12.070;2023-07-02T06:06:51;5.07;;;2.38;;
50213;SDS011;36103;54.176;12.070;2023-07-02T06:07:53;5.87;;;2.77;;